Atqasuk Edward Burnell Sr Memorial Airport Atqasuk US
ICAO: PATQ
IATA:
Category: Medium
Scheduled Services:

Elevation: 96 ft
TransAlt. 18000 ft.

Airport Communications:
ASOS:119.925
ANCHORAGE CNTR:135.3
CTAF:122.9
BARROW RDO:122.2

PATQ Zoom In..

If you have problems with the map follow the link
https://www.worldairports.se/pages/airport.php?
ICAO=PATQ

Runways:

(A) RW 06 length 4370 ft width 90 ft
---- / hdg 61

(B) RW 24 length 4370 ft width 90 ft
---- / hdg 241

Location; PATQ
Day. 24 / Time. 00.02 Zulu
* Altimeter: 29.90
* Temperature: 00° c. 32°f.
* Wind from: 070° Speed 11 kn.
Dewpoint: -04° c.
Visibility: 10 Statute Miles.
Clouds: Overcast 1800 ft.

PATQ 240002Z AUTO 07011KT 10SM OVC018 00/M04 A2990 RMK VIA PHONE


Wind From 070°
Speed 11 kn.

 
 
jpsmedia.com for Web Design worldairports.se 2018   terms of use